Главная страница
METAR-TAF:

METAR-TAF

Аэропорты :

Гонконг, Китай

широта: 22-19N, долгота: 113-55E, высота над уровнем моря: 9 м

Текущие метеонаблюдения

Эта сводка был подготовлена 17 минут назад, в 21:30 UTC
Ветер 10 Узел от восточный
Температура 23°C
Влажность 83%
Давление 1012 hPa
Видимость: 8000 м
небольшая облачность на высоте 2800 фута
Отдельные облака на высоте 3500 фута

METAR: VHHH 252130Z 09010KT 8000 FEW028 SCT035 23/20 Q1012 NOSIG

Время: 05:47 (21:47 UTC)

Прогноз

Эта сводка был подготовлена 4 часа и 47 минут назад, в 17:00 UTC
Прогноз действительный с 25-го 18 UTC до 26-го 24 UTC
Ветер 10 Узел от восточно-юго-восточный
Видимость: 7000 м
небольшая облачность на высоте 1500 фута
Отдельные облака на высоте 3000 фута

TAF: VHHH 251700Z 2518/2624 11010KT 7000 FEW015 SCT030 TX26/2606Z TN23/2523Z

Метеонаблюдения и прогнозы для более 4000 аэропортов (сводки METAR и TAF).

Имеющиеся станции представлены на карте желтыми и красными точками.

Чтобы увидеть название станции, наведите на нее мышь.

Затем щелкните, чтобы увидеть метеонаблюдения и метеопрогнозы.

Управление картой: чтобы увеличить масштаб, щелкните зеленые кнопки с черным крестиком; чтобы уменьшить масштаб, щелкните зеленую кнопку с тире; для просмотра соседних карт щелкайте зеленые стрелки.


METAR-TAF: